createdAt,value
2018-07-26T00:01:22.638Z,98485.51
2018-07-26T00:03:50.772Z,98482.41
2018-07-26T00:06:18.864Z,98498.58
2018-07-26T00:08:46.959Z,98491.70
2018-07-26T00:11:15.035Z,98489.05
2018-07-26T00:13:43.127Z,98490.66
2018-07-26T00:16:11.214Z,98487.69
2018-07-26T00:18:39.307Z,98492.72
2018-07-26T00:21:07.414Z,98484.98
2018-07-26T00:23:35.500Z,98486.11
2018-07-26T00:26:03.578Z,98479.92
2018-07-26T00:28:31.675Z,98482.26
2018-07-26T00:31:00.039Z,98479.86
2018-07-26T00:33:28.131Z,98482.21
2018-07-26T00:35:56.202Z,98482.66
2018-07-26T00:38:24.313Z,98486.09
2018-07-26T00:40:52.454Z,98486.21
2018-07-26T00:43:20.604Z,98483.28
2018-07-26T00:45:48.701Z,98487.00
2018-07-26T00:48:16.790Z,98486.86
2018-07-26T00:50:44.918Z,98491.13
2018-07-26T00:53:13.004Z,98483.87
2018-07-26T00:55:41.111Z,98487.24
2018-07-26T00:58:09.994Z,98485.70
2018-07-26T01:00:38.116Z,98489.08
2018-07-26T01:03:06.230Z,98495.25
2018-07-26T01:05:34.323Z,98492.02
2018-07-26T01:08:02.502Z,98486.11
2018-07-26T01:10:30.583Z,98488.05
2018-07-26T01:12:58.684Z,98476.50
2018-07-26T01:15:26.771Z,98485.31
2018-07-26T01:17:55.075Z,98484.81
2018-07-26T01:20:23.167Z,98486.12
2018-07-26T01:22:51.252Z,98494.63
2018-07-26T01:25:19.358Z,98492.97
2018-07-26T01:27:47.442Z,98495.04
2018-07-26T01:30:15.546Z,98493.87
2018-07-26T01:32:43.645Z,98495.34
2018-07-26T01:35:11.731Z,98495.64
2018-07-26T01:37:39.835Z,98490.89
2018-07-26T01:40:07.950Z,98486.31
2018-07-26T01:44:45.128Z,98493.06
2018-07-26T01:47:13.220Z,98490.28
2018-07-26T01:49:41.547Z,98492.98
2018-07-26T01:52:09.628Z,98498.59
2018-07-26T01:54:37.734Z,98499.98
2018-07-26T01:57:05.828Z,98492.89
2018-07-26T01:59:33.940Z,98497.06
2018-07-26T02:02:02.120Z,98498.48
2018-07-26T02:04:30.190Z,98495.73
2018-07-26T02:06:58.267Z,98493.12
2018-07-26T02:09:26.361Z,98493.12
2018-07-26T02:11:54.475Z,98497.77
2018-07-26T02:14:28.160Z,98498.85
2018-07-26T02:16:56.255Z,98501.33
2018-07-26T02:19:24.325Z,98504.69
2018-07-26T02:21:52.446Z,98502.95
2018-07-26T02:24:20.527Z,98505.53
2018-07-26T02:26:48.621Z,98499.55
2018-07-26T02:29:16.717Z,98500.53
2018-07-26T02:31:44.823Z,98502.75
2018-07-26T02:34:12.981Z,98497.27
2018-07-26T02:36:41.115Z,98503.20
2018-07-26T02:39:09.962Z,98503.50
2018-07-26T02:41:38.366Z,98510.42
2018-07-26T02:44:06.445Z,98509.53
2018-07-26T02:46:34.537Z,98509.30
2018-07-26T02:49:02.608Z,98507.73
2018-07-26T02:51:30.699Z,98516.31
2018-07-26T02:54:06.509Z,98512.58
2018-07-26T02:56:34.595Z,98516.73
2018-07-26T02:59:02.685Z,98518.30
2018-07-26T03:01:30.779Z,98513.88
2018-07-26T03:03:58.892Z,98512.78
2018-07-26T03:06:26.998Z,98512.78
2018-07-26T03:08:55.178Z,98515.30
2018-07-26T03:11:23.279Z,98513.38
2018-07-26T03:13:51.374Z,98516.27
2018-07-26T03:16:19.475Z,98521.03
2018-07-26T03:18:47.569Z,98520.63
2018-07-26T03:21:15.992Z,98513.80
2018-07-26T03:23:44.871Z,98516.47
2018-07-26T03:26:13.040Z,98518.26
2018-07-26T03:28:41.115Z,98520.31
2018-07-26T03:31:09.482Z,98526.06
2018-07-26T03:33:37.608Z,98527.16
2018-07-26T03:36:05.696Z,98527.65
2018-07-26T03:38:33.802Z,98530.23
2018-07-26T03:41:02.009Z,98532.83
2018-07-26T03:43:30.209Z,98529.86
2018-07-26T03:45:58.264Z,98535.48
2018-07-26T03:48:26.352Z,98532.07
2018-07-26T03:50:54.439Z,98534.28
2018-07-26T03:53:22.547Z,98535.55
2018-07-26T03:55:57.034Z,98540.51
2018-07-26T03:58:25.110Z,98537.13
2018-07-26T04:00:53.200Z,98539.42
2018-07-26T04:03:21.366Z,98535.55
2018-07-26T04:05:49.447Z,98538.03
2018-07-26T04:08:17.514Z,98540.95
2018-07-26T04:10:46.032Z,98537.60
2018-07-26T04:13:14.396Z,98546.67
2018-07-26T04:15:42.485Z,98546.52
2018-07-26T04:18:10.571Z,98548.97
2018-07-26T04:20:38.657Z,98549.77
2018-07-26T04:23:06.810Z,98548.53
2018-07-26T04:25:34.901Z,98553.70
2018-07-26T04:28:03.400Z,98556.07
2018-07-26T04:30:31.482Z,98557.22
2018-07-26T04:32:59.592Z,98551.02
2018-07-26T04:35:27.709Z,98556.31
2018-07-26T04:37:55.818Z,98542.53
2018-07-26T04:40:23.915Z,98547.22
2018-07-26T04:42:52.060Z,98551.06
2018-07-26T04:45:20.144Z,98558.39
2018-07-26T04:47:48.219Z,98557.16
2018-07-26T04:50:16.320Z,98558.80
2018-07-26T04:52:44.472Z,98557.72
2018-07-26T04:55:12.534Z,98558.98
2018-07-26T04:57:40.624Z,98562.70
2018-07-26T05:00:08.799Z,98557.83
2018-07-26T05:02:37.103Z,98561.34
2018-07-26T05:05:05.699Z,98560.59
2018-07-26T05:07:33.803Z,98562.12
2018-07-26T05:10:01.933Z,98560.98
2018-07-26T05:12:30.018Z,98570.27
2018-07-26T05:14:58.192Z,98578.23
2018-07-26T05:17:26.295Z,98570.38
2018-07-26T05:19:54.387Z,98570.17
2018-07-26T05:22:22.555Z,98576.27
2018-07-26T05:24:50.643Z,98570.38
2018-07-26T05:27:18.891Z,98571.73
2018-07-26T05:29:46.995Z,98567.24
2018-07-26T05:32:15.088Z,98567.63
2018-07-26T05:34:43.202Z,98558.70
2018-07-26T05:37:11.303Z,98555.13
2018-07-26T05:39:39.392Z,98558.20
2018-07-26T05:42:07.476Z,98552.30
2018-07-26T05:44:35.579Z,98545.03
2018-07-26T05:47:03.669Z,98545.11
2018-07-26T05:49:31.763Z,98537.96
2018-07-26T05:51:59.831Z,98541.64
2018-07-26T05:54:27.929Z,98546.16
2018-07-26T05:56:56.014Z,98545.22
2018-07-26T05:59:24.191Z,98547.70
2018-07-26T06:01:52.294Z,98548.30
2018-07-26T06:04:20.445Z,98555.75
2018-07-26T06:06:48.530Z,98564.06
2018-07-26T06:09:16.636Z,98565.42
2018-07-26T06:11:44.724Z,98571.26
2018-07-26T06:14:12.824Z,98579.23
2018-07-26T06:16:40.909Z,98570.78
2018-07-26T06:19:09.009Z,98571.56
2018-07-26T06:21:37.120Z,98567.23
2018-07-26T06:24:05.436Z,98568.66
2018-07-26T06:26:33.523Z,98578.70
2018-07-26T06:29:01.620Z,98577.97
2018-07-26T06:31:29.754Z,98579.96
2018-07-26T06:33:57.840Z,98574.91
2018-07-26T06:36:25.962Z,98578.11
2018-07-26T06:38:54.056Z,98584.52
2018-07-26T06:41:22.177Z,98582.67
2018-07-26T06:43:50.279Z,98583.17
2018-07-26T06:46:18.454Z,98586.73
2018-07-26T06:48:46.555Z,98585.00
2018-07-26T06:51:14.656Z,98587.28
2018-07-26T06:53:42.733Z,98592.13
2018-07-26T06:56:11.136Z,98589.48
2018-07-26T06:58:39.227Z,98586.31
2018-07-26T07:01:07.624Z,98594.83
2018-07-26T07:03:35.711Z,98590.84
2018-07-26T07:06:03.856Z,98593.09
2018-07-26T07:08:31.943Z,98593.34
2018-07-26T07:11:00.056Z,98596.23
2018-07-26T07:13:28.157Z,98597.87
2018-07-26T07:15:56.250Z,98598.23
2018-07-26T07:18:24.568Z,98591.41
2018-07-26T07:20:53.408Z,98595.19
2018-07-26T07:23:21.514Z,98593.41
2018-07-26T07:25:49.610Z,98601.45
2018-07-26T07:28:17.709Z,98601.31
2018-07-26T07:30:45.811Z,98589.13
2018-07-26T07:33:13.990Z,98594.20
2018-07-26T07:35:41.979Z,98592.19
2018-07-26T07:38:10.075Z,98584.00
2018-07-26T07:40:38.149Z,98590.59
2018-07-26T07:43:06.272Z,98585.27
2018-07-26T07:45:34.358Z,98584.39
2018-07-26T07:48:02.460Z,98586.73
2018-07-26T07:50:30.534Z,98591.00
2018-07-26T07:52:58.641Z,98589.49
2018-07-26T07:55:26.716Z,98595.56
2018-07-26T07:57:54.827Z,98590.92
2018-07-26T08:00:22.931Z,98588.03
2018-07-26T08:02:51.035Z,98588.21
2018-07-26T08:05:19.143Z,98588.73
2018-07-26T08:07:47.207Z,98592.73
2018-07-26T08:10:15.293Z,98590.48
2018-07-26T08:12:43.373Z,98594.78
2018-07-26T08:15:11.769Z,98590.56
2018-07-26T08:17:39.847Z,98586.44
2018-07-26T08:20:09.037Z,98586.50
2018-07-26T08:22:37.127Z,98588.38
2018-07-26T08:25:06.343Z,98586.35
2018-07-26T08:27:34.465Z,98589.72
2018-07-26T08:30:02.584Z,98589.09
2018-07-26T08:32:30.677Z,98589.93
2018-07-26T08:34:59.248Z,98590.73
2018-07-26T08:37:27.303Z,98590.06
2018-07-26T08:39:55.374Z,98589.13
2018-07-26T08:42:23.521Z,98586.42
2018-07-26T08:44:51.559Z,98589.96
2018-07-26T08:47:19.638Z,98592.30
2018-07-26T08:49:47.752Z,98588.55
2018-07-26T08:52:15.978Z,98583.80
2018-07-26T08:54:44.251Z,98589.20
2018-07-26T08:57:12.353Z,98585.27
2018-07-26T08:59:40.459Z,98586.28
2018-07-26T09:02:08.560Z,98584.02
2018-07-26T09:04:36.657Z,98584.27
2018-07-26T09:07:04.771Z,98583.56
2018-07-26T09:09:32.855Z,98581.56
2018-07-26T09:12:00.940Z,98586.64
2018-07-26T09:14:29.040Z,98582.68
2018-07-26T09:16:58.172Z,98583.47
2018-07-26T09:19:26.264Z,98575.84
2018-07-26T09:21:54.346Z,98572.30
2018-07-26T09:24:22.741Z,98573.31
2018-07-26T09:26:50.796Z,98562.81
2018-07-26T09:29:18.973Z,98557.56
2018-07-26T09:31:47.236Z,98561.98
2018-07-26T09:34:15.396Z,98554.11
2018-07-26T09:36:43.488Z,98559.88
2018-07-26T09:39:16.307Z,98562.02
2018-07-26T09:41:45.665Z,98560.89
2018-07-26T09:44:15.105Z,98557.17
2018-07-26T09:46:43.188Z,98557.30
2018-07-26T09:49:11.275Z,98560.23
2018-07-26T09:51:39.362Z,98547.63
2018-07-26T09:54:07.576Z,98549.67
2018-07-26T09:56:35.667Z,98554.13
2018-07-26T09:59:03.751Z,98548.77
2018-07-26T10:01:33.516Z,98552.39
2018-07-26T10:04:01.634Z,98548.11
2018-07-26T10:06:30.507Z,98539.63
2018-07-26T10:08:58.720Z,98540.72
2018-07-26T10:11:27.539Z,98545.20
2018-07-26T10:13:56.158Z,98544.60
2018-07-26T10:16:24.423Z,98541.36
2018-07-26T10:18:52.531Z,98540.66
2018-07-26T10:21:20.727Z,98538.23
2018-07-26T10:23:48.822Z,98533.36
2018-07-26T10:26:16.906Z,98539.14
2018-07-26T10:28:45.006Z,98528.13
2018-07-26T10:31:13.104Z,98525.49
2018-07-26T10:33:41.207Z,98529.02
2018-07-26T10:36:09.308Z,98527.45
2018-07-26T10:38:37.388Z,98527.12
2018-07-26T10:41:05.532Z,98528.39
2018-07-26T10:43:33.627Z,98526.65
2018-07-26T10:46:02.751Z,98524.91
2018-07-26T10:48:31.316Z,98527.66
2018-07-26T10:50:59.426Z,98531.77
2018-07-26T10:53:27.525Z,98528.88
2018-07-26T10:55:55.627Z,98534.95
2018-07-26T10:58:23.698Z,98522.57
2018-07-26T11:00:51.803Z,98521.53
2018-07-26T11:03:20.087Z,98516.63
2018-07-26T11:05:48.176Z,98512.09
2018-07-26T11:08:16.397Z,98513.16
2018-07-26T11:10:44.475Z,98508.05
2018-07-26T11:13:12.571Z,98505.53
2018-07-26T11:15:40.659Z,98510.80
2018-07-26T11:18:08.739Z,98506.02
2018-07-26T11:20:36.835Z,98505.10
2018-07-26T11:23:04.937Z,98506.97
2018-07-26T11:25:33.068Z,98503.43
2018-07-26T11:28:01.135Z,98502.05
2018-07-26T11:30:29.257Z,98501.95
2018-07-26T11:32:57.336Z,98494.16
2018-07-26T11:35:25.415Z,98496.42
2018-07-26T11:37:53.531Z,98488.26
2018-07-26T11:40:21.700Z,98495.13
2018-07-26T11:42:49.868Z,98489.41
2018-07-26T11:45:17.979Z,98485.20
2018-07-26T11:47:46.068Z,98487.62
2018-07-26T11:50:14.229Z,98492.55
2018-07-26T11:52:42.252Z,98483.86
2018-07-26T11:55:10.356Z,98475.17
2018-07-26T11:57:38.437Z,98474.87
2018-07-26T12:00:07.872Z,98469.77
2018-07-26T12:02:36.274Z,98479.36
2018-07-26T12:05:04.760Z,98464.91
2018-07-26T12:07:32.842Z,98464.41
2018-07-26T12:10:00.928Z,98465.22
2018-07-26T12:12:29.026Z,98454.06
2018-07-26T12:14:57.102Z,98463.03
2018-07-26T12:17:25.188Z,98460.05
2018-07-26T12:19:53.275Z,98463.83
2018-07-26T12:22:27.949Z,98456.50
2018-07-26T12:24:56.041Z,98458.70
2018-07-26T12:27:29.820Z,98450.78
2018-07-26T12:29:57.908Z,98452.42
2018-07-26T12:32:26.012Z,98449.44
2018-07-26T12:34:54.395Z,98448.78
2018-07-26T12:37:22.520Z,98449.82
2018-07-26T12:39:50.778Z,98446.02
2018-07-26T12:42:25.728Z,98444.94
2018-07-26T12:44:53.825Z,98452.36
2018-07-26T12:47:22.019Z,98449.95
2018-07-26T12:49:50.069Z,98440.90
2018-07-26T12:52:20.839Z,98447.96
2018-07-26T12:54:49.333Z,98440.33
2018-07-26T12:57:17.592Z,98437.15
2018-07-26T12:59:45.673Z,98429.53
2018-07-26T13:02:13.793Z,98423.28
2018-07-26T13:04:41.887Z,98426.53
2018-07-26T13:07:10.015Z,98434.16
2018-07-26T13:09:38.160Z,98420.24
2018-07-26T13:12:06.307Z,98420.83
2018-07-26T13:14:34.415Z,98415.64
2018-07-26T13:17:02.495Z,98412.93
2018-07-26T13:19:30.592Z,98413.76
2018-07-26T13:21:58.684Z,98404.20
2018-07-26T13:24:26.771Z,98410.22
2018-07-26T13:26:54.873Z,98402.57
2018-07-26T13:29:23.267Z,98403.12
2018-07-26T13:31:51.356Z,98401.50
2018-07-26T13:34:19.458Z,98404.50
2018-07-26T13:36:47.545Z,98404.22
2018-07-26T13:39:15.641Z,98408.81
2018-07-26T13:41:43.748Z,98406.13
2018-07-26T13:44:11.839Z,98404.47
2018-07-26T13:46:39.939Z,98394.67
2018-07-26T13:49:08.037Z,98392.93
2018-07-26T13:51:36.142Z,98388.82
2018-07-26T13:54:04.253Z,98396.50
2018-07-26T13:56:38.095Z,98390.88
2018-07-26T13:59:06.172Z,98394.64
2018-07-26T14:01:34.263Z,98389.47
2018-07-26T14:04:02.366Z,98391.70
2018-07-26T14:06:30.434Z,98388.97
2018-07-26T14:08:58.527Z,98390.53
2018-07-26T14:11:26.635Z,98391.91
2018-07-26T14:13:54.704Z,98394.12
2018-07-26T14:16:22.842Z,98386.42
2018-07-26T14:18:50.963Z,98382.33
2018-07-26T14:21:19.119Z,98382.03
2018-07-26T14:23:51.375Z,98374.30
2018-07-26T14:26:19.551Z,98378.16
2018-07-26T14:28:47.647Z,98372.77
2018-07-26T14:31:15.730Z,98372.88
2018-07-26T14:33:43.817Z,98372.72
2018-07-26T14:36:11.911Z,98375.55
2018-07-26T14:38:40.679Z,98375.83
2018-07-26T14:41:08.813Z,98373.97
2018-07-26T14:43:36.954Z,98379.97
2018-07-26T14:46:04.989Z,98371.52
2018-07-26T14:48:39.800Z,98369.33
2018-07-26T14:51:07.893Z,98370.46
2018-07-26T14:53:35.996Z,98363.88
2018-07-26T14:56:04.083Z,98361.94
2018-07-26T14:58:32.368Z,98358.60
2018-07-26T15:01:00.600Z,98355.88
2018-07-26T15:03:28.652Z,98358.22
2018-07-26T15:05:56.764Z,98355.50
2018-07-26T15:08:24.865Z,98353.05
2018-07-26T15:10:52.971Z,98354.20
2018-07-26T15:13:21.345Z,98358.44
2018-07-26T15:15:49.452Z,98364.48
2018-07-26T15:18:17.526Z,98364.45
2018-07-26T15:20:45.737Z,98360.91
2018-07-26T15:23:13.821Z,98358.48
2018-07-26T15:25:41.947Z,98360.37
2018-07-26T15:28:10.063Z,98357.34
2018-07-26T15:30:38.152Z,98361.66
2018-07-26T15:33:06.257Z,98337.14
2018-07-26T15:35:34.342Z,98347.49
2018-07-26T15:38:02.441Z,98346.87
2018-07-26T15:40:31.341Z,98346.02
2018-07-26T15:42:59.437Z,98347.34
2018-07-26T15:45:27.545Z,98347.84
2018-07-26T15:47:55.637Z,98340.70
2018-07-26T15:50:23.739Z,98344.17
2018-07-26T15:52:51.833Z,98337.93
2018-07-26T15:55:19.917Z,98336.47
2018-07-26T15:57:48.007Z,98338.17
2018-07-26T16:00:16.102Z,98333.34
2018-07-26T16:02:44.195Z,98340.37
2018-07-26T16:05:13.273Z,98338.16
2018-07-26T16:07:41.320Z,98333.53
2018-07-26T16:10:09.880Z,98332.02
2018-07-26T16:12:38.248Z,98338.88
2018-07-26T16:15:08.515Z,98334.27
2018-07-26T16:17:36.688Z,98335.62
2018-07-26T16:20:06.668Z,98326.61
2018-07-26T16:22:34.805Z,98333.67
2018-07-26T16:25:02.888Z,98336.66
2018-07-26T16:27:31.188Z,98338.28
2018-07-26T16:29:59.310Z,98332.28
2018-07-26T16:32:27.820Z,98324.08
2018-07-26T16:34:55.912Z,98334.98
2018-07-26T16:37:23.994Z,98335.84
2018-07-26T16:39:52.120Z,98327.86
2018-07-26T16:42:20.475Z,98326.78
2018-07-26T16:44:48.621Z,98324.84
2018-07-26T16:47:17.055Z,98334.39
2018-07-26T16:49:45.146Z,98332.39
2018-07-26T16:52:13.554Z,98327.55
2018-07-26T16:54:41.643Z,98333.72
2018-07-26T16:57:09.744Z,98330.04
2018-07-26T16:59:37.850Z,98329.98
2018-07-26T17:02:05.955Z,98325.47
2018-07-26T17:04:34.049Z,98327.62
2018-07-26T17:07:02.137Z,98327.34
2018-07-26T17:09:30.221Z,98334.20
2018-07-26T17:11:58.352Z,98328.62
2018-07-26T17:14:26.451Z,98328.30
2018-07-26T17:16:54.545Z,98325.00
2018-07-26T17:19:22.629Z,98325.78
2018-07-26T17:21:50.747Z,98327.80
2018-07-26T17:24:18.907Z,98323.20
2018-07-26T17:26:47.019Z,98323.67
2018-07-26T17:29:16.757Z,98322.28
2018-07-26T17:31:45.068Z,98327.08
2018-07-26T17:34:13.220Z,98328.22
2018-07-26T17:36:41.311Z,98329.36
2018-07-26T17:39:11.227Z,98327.16
2018-07-26T17:41:39.607Z,98328.77
2018-07-26T17:44:07.714Z,98336.06
2018-07-26T17:46:35.835Z,98328.40
2018-07-26T17:49:03.937Z,98333.55
2018-07-26T17:51:32.321Z,98331.06
2018-07-26T17:54:00.411Z,98332.69
2018-07-26T17:56:28.489Z,98341.84
2018-07-26T17:58:56.585Z,98341.00
2018-07-26T18:01:24.676Z,98343.89
2018-07-26T18:03:52.784Z,98342.73
2018-07-26T18:06:20.953Z,98338.33
2018-07-26T18:08:49.040Z,98338.09
2018-07-26T18:11:17.618Z,98340.44
2018-07-26T18:13:45.767Z,98343.16
2018-07-26T18:16:13.862Z,98348.50
2018-07-26T18:18:41.960Z,98352.03
2018-07-26T18:21:10.087Z,98348.12
2018-07-26T18:23:38.187Z,98348.48
2018-07-26T18:26:06.327Z,98355.13
2018-07-26T18:28:34.430Z,98355.55
2018-07-26T18:31:02.548Z,98357.76
2018-07-26T18:33:30.640Z,98357.63
2018-07-26T18:35:58.731Z,98362.02
2018-07-26T18:38:26.859Z,98361.52
2018-07-26T18:40:54.961Z,98366.25
2018-07-26T18:43:23.194Z,98365.62
2018-07-26T18:45:51.293Z,98369.49
2018-07-26T18:48:19.629Z,98369.32
2018-07-26T18:50:48.032Z,98372.33
2018-07-26T18:53:16.140Z,98369.16
2018-07-26T18:55:44.372Z,98368.98
2018-07-26T18:58:12.489Z,98375.79
2018-07-26T19:00:40.596Z,98377.21
2018-07-26T19:03:08.677Z,98376.55
2018-07-26T19:05:36.772Z,98380.13
2018-07-26T19:08:05.596Z,98379.92
2018-07-26T19:10:33.684Z,98384.94
2018-07-26T19:13:01.782Z,98380.19
2018-07-26T19:15:29.883Z,98384.09
2018-07-26T19:17:57.996Z,98385.36
2018-07-26T19:20:26.122Z,98391.44
2018-07-26T19:22:54.236Z,98393.86
2018-07-26T19:25:23.401Z,98392.91
2018-07-26T19:27:51.509Z,98393.58
2018-07-26T19:30:20.343Z,98400.19
2018-07-26T19:32:48.451Z,98401.97
2018-07-26T19:35:16.581Z,98404.19
2018-07-26T19:37:44.656Z,98410.87
2018-07-26T19:40:19.494Z,98415.30
2018-07-26T19:42:47.581Z,98413.53
2018-07-26T19:45:15.708Z,98412.25
2018-07-26T19:47:43.813Z,98415.95
2018-07-26T19:50:11.957Z,98410.13
2018-07-26T19:52:40.059Z,98411.89
2018-07-26T19:55:09.875Z,98415.87
2018-07-26T19:57:37.975Z,98422.73
2018-07-26T20:00:06.951Z,98418.10
2018-07-26T20:02:36.234Z,98419.47
2018-07-26T20:05:04.709Z,98417.41
2018-07-26T20:07:32.789Z,98423.05
2018-07-26T20:10:00.956Z,98419.45
2018-07-26T20:12:29.024Z,98424.80
2018-07-26T20:14:57.171Z,98428.83
2018-07-26T20:17:25.328Z,98428.42
2018-07-26T20:19:53.415Z,98426.45
2018-07-26T20:22:22.348Z,98424.52
2018-07-26T20:24:50.448Z,98428.48
2018-07-26T20:27:18.520Z,98424.89
2018-07-26T20:29:46.615Z,98431.42
2018-07-26T20:32:14.692Z,98429.45
2018-07-26T20:34:43.110Z,98434.51
2018-07-26T20:37:11.227Z,98442.05
2018-07-26T20:39:39.371Z,98442.62
2018-07-26T20:42:07.519Z,98440.52
2018-07-26T20:44:35.624Z,98442.67
2018-07-26T20:47:03.782Z,98447.87
2018-07-26T20:49:31.945Z,98443.53
2018-07-26T20:52:00.057Z,98442.45
2018-07-26T20:54:28.175Z,98446.80
2018-07-26T20:56:56.292Z,98444.17
2018-07-26T20:59:24.455Z,98449.68
2018-07-26T21:01:52.586Z,98452.94
2018-07-26T21:04:20.737Z,98452.97
2018-07-26T21:06:48.875Z,98453.63
2018-07-26T21:09:16.961Z,98459.42
2018-07-26T21:11:45.596Z,98458.81
2018-07-26T21:14:13.701Z,98464.50
2018-07-26T21:16:42.099Z,98456.57
2018-07-26T21:19:10.221Z,98461.84
2018-07-26T21:21:38.439Z,98460.11
2018-07-26T21:24:06.532Z,98456.77
2018-07-26T21:26:34.631Z,98455.13
2018-07-26T21:29:02.728Z,98458.84
2018-07-26T21:31:33.842Z,98465.80
2018-07-26T21:34:01.924Z,98458.63
2018-07-26T21:36:30.045Z,98461.14
2018-07-26T21:38:58.123Z,98455.05
2018-07-26T21:41:26.209Z,98461.30
2018-07-26T21:43:55.323Z,98459.89
2018-07-26T21:46:23.517Z,98459.41
2018-07-26T21:48:51.624Z,98462.81
2018-07-26T21:51:19.737Z,98458.89
2018-07-26T21:53:47.840Z,98469.21
2018-07-26T21:56:16.088Z,98465.40
2018-07-26T21:58:44.202Z,98454.29
2018-07-26T22:13:11.941Z,98450.37
2018-07-26T22:15:40.287Z,98453.84
2018-07-26T22:18:08.493Z,98455.91
2018-07-26T22:20:36.583Z,98459.27
2018-07-26T22:23:04.710Z,98454.93
2018-07-26T22:25:32.993Z,98456.36
2018-07-26T22:28:01.100Z,98446.45
2018-07-26T22:30:29.216Z,98459.50
2018-07-26T22:32:57.710Z,98448.08
2018-07-26T22:35:25.905Z,98446.75
2018-07-26T22:37:54.332Z,98448.20
2018-07-26T22:40:23.238Z,98444.07
2018-07-26T22:42:51.399Z,98442.19
2018-07-26T22:45:19.490Z,98446.20
2018-07-26T22:47:47.632Z,98451.52
2018-07-26T22:50:15.738Z,98445.87
2018-07-26T22:52:43.921Z,98440.23
2018-07-26T22:55:12.078Z,98443.91
2018-07-26T22:57:40.191Z,98437.00
2018-07-26T23:00:08.529Z,98442.22
2018-07-26T23:02:36.619Z,98445.30
2018-07-26T23:05:05.092Z,98440.44
2018-07-26T23:07:33.220Z,98449.59
2018-07-26T23:10:01.339Z,98444.95
2018-07-26T23:12:29.417Z,98445.66
2018-07-26T23:14:57.578Z,98458.27
2018-07-26T23:17:25.948Z,98449.20
2018-07-26T23:19:54.048Z,98453.39
2018-07-26T23:22:22.164Z,98456.84
2018-07-26T23:24:50.251Z,98456.88
2018-07-26T23:27:18.372Z,98454.28
2018-07-26T23:29:46.479Z,98452.88
2018-07-26T23:32:14.578Z,98447.54
2018-07-26T23:34:42.680Z,98452.18
2018-07-26T23:37:10.785Z,98456.19
2018-07-26T23:39:38.886Z,98452.45
2018-07-26T23:42:06.971Z,98456.73
2018-07-26T23:44:35.072Z,98454.86
2018-07-26T23:47:03.158Z,98450.11
2018-07-26T23:49:31.228Z,98442.06
2018-07-26T23:51:59.308Z,98444.86
2018-07-26T23:54:27.418Z,98446.27
2018-07-26T23:56:55.494Z,98451.16
2018-07-26T23:59:23.612Z,98447.42
